Main page
METAR-TAF:

METAR-TAF

Airports :

Norwich Airport

Norwich, England

latitude: 52-38N, longitude: 001-18E, elevation: 14 m

Current weather observation

The report was made 29 minutes ago, at 07:20 UTC
Wind 8 kt from the Southwest
Temperature 16°C
Humidity 88%
Pressure 1002 hPa
Visibility 10 km or more
Scattered clouds at a height of 1200 ft
Scattered clouds at a height of 2000 ft

METAR: EGSH 180720Z 23008KT 9999 SCT012 SCT020 16/14 Q1002

Time: 08:49 (07:49 UTC)

Forecast

The report was made 2 hours and 55 minutes ago, at 04:54 UTC
Forecast valid from 18 at 06 UTC to 18 at 15 UTC
Wind 8 kt from the Southwest
Visibility 10 km or more
Few clouds at a height of 3000 ft
Probability 30% :
Temporary
from 18 at 12 UTC to 18 at 15 UTC
Wind 15 kt from the West/Southwest with gusts up to 25 kt

TAF: EGSH 180454Z 1806/1815 23008KT 9999 FEW030 PROB30 TEMPO 1812/1815 25015G25KT

Weather observations and forecasts of more than 4000 airports (METAR and TAF reports).

The available stations are represented by yellow and red dots on the map.

Hover mouse over dot to see the name of the station.

Then click to see weather observations and forecasts.

To change the map : click on the green buttons with a black cross to zoom in, on the green button with a dash to zoom out, or on the green arrows for adjacent maps.


METAR-TAF: